sensor_id;sensor_type;location;lat;lon;timestamp;P1;durP1;ratioP1;P2;durP2;ratioP2
65039;SDS011;51606;45.000;38.612;2023-04-03T04:46:33;0.75;;;0.65;;
65039;SDS011;51606;45.000;38.612;2023-04-03T04:48:59;1.08;;;0.75;;
65039;SDS011;51606;45.000;38.612;2023-04-03T04:51:28;0.68;;;0.68;;
65039;SDS011;51606;45.000;38.612;2023-04-03T04:53:55;1.08;;;0.63;;
65039;SDS011;51606;45.000;38.612;2023-04-03T04:56:23;0.70;;;0.70;;
65039;SDS011;51606;45.000;38.612;2023-04-03T04:58:49;0.80;;;0.70;;
65039;SDS011;51606;45.000;38.612;2023-04-03T05:01:18;1.52;;;0.65;;
65039;SDS011;51606;45.000;38.612;2023-04-03T05:06:20;0.50;;;0.40;;
65039;SDS011;51606;45.000;38.612;2023-04-03T05:08:46;0.55;;;0.55;;
65039;SDS011;51606;45.000;38.612;2023-04-03T05:11:13;1.10;;;1.00;;
65039;SDS011;51606;45.000;38.612;2023-04-03T05:13:41;3.53;;;0.90;;
65039;SDS011;51606;45.000;38.612;2023-04-03T05:16:07;1.95;;;1.02;;
65039;SDS011;51606;45.000;38.612;2023-04-03T05:18:34;1.25;;;1.02;;
65039;SDS011;51606;45.000;38.612;2023-04-03T05:21:05;0.68;;;0.68;;
65039;SDS011;51606;45.000;38.612;2023-04-03T05:23:31;0.88;;;0.85;;
65039;SDS011;51606;45.000;38.612;2023-04-03T05:26:01;0.88;;;0.70;;
65039;SDS011;51606;45.000;38.612;2023-04-03T05:28:29;1.17;;;0.82;;
65039;SDS011;51606;45.000;38.612;2023-04-03T05:30:56;3.90;;;1.77;;
65039;SDS011;51606;45.000;38.612;2023-04-03T05:33:29;1.17;;;1.08;;
65039;SDS011;51606;45.000;38.612;2023-04-03T05:36:01;4.18;;;0.90;;
65039;SDS011;51606;45.000;38.612;2023-04-03T05:38:30;0.80;;;0.80;;
65039;SDS011;51606;45.000;38.612;2023-04-03T05:40:58;0.98;;;0.88;;
65039;SDS011;51606;45.000;38.612;2023-04-03T05:43:24;0.73;;;0.73;;
65039;SDS011;51606;45.000;38.612;2023-04-03T05:45:51;0.88;;;0.73;;
65039;SDS011;51606;45.000;38.612;2023-04-03T05:48:20;1.42;;;0.80;;
65039;SDS011;51606;45.000;38.612;2023-04-03T05:50:47;1.25;;;1.08;;
65039;SDS011;51606;45.000;38.612;2023-04-03T05:53:23;4.50;;;2.17;;
65039;SDS011;51606;45.000;38.612;2023-04-03T05:55:54;1.27;;;0.90;;
65039;SDS011;51606;45.000;38.612;2023-04-03T05:58:21;2.17;;;1.27;;
65039;SDS011;51606;45.000;38.612;2023-04-03T06:00:50;1.20;;;0.90;;
65039;SDS011;51606;45.000;38.612;2023-04-03T06:03:17;0.85;;;0.63;;
65039;SDS011;51606;45.000;38.612;2023-04-03T06:05:43;0.88;;;0.63;;
65039;SDS011;51606;45.000;38.612;2023-04-03T06:08:11;0.93;;;0.70;;
65039;SDS011;51606;45.000;38.612;2023-04-03T06:10:38;0.95;;;0.80;;
65039;SDS011;51606;45.000;38.612;2023-04-03T06:13:05;1.27;;;0.85;;
65039;SDS011;51606;45.000;38.612;2023-04-03T06:15:32;2.55;;;1.00;;
65039;SDS011;51606;45.000;38.612;2023-04-03T06:18:00;2.20;;;0.98;;
65039;SDS011;51606;45.000;38.612;2023-04-03T06:20:26;4.40;;;0.77;;
65039;SDS011;51606;45.000;38.612;2023-04-03T06:22:53;0.75;;;0.75;;
65039;SDS011;51606;45.000;38.612;2023-04-03T06:25:20;1.92;;;0.68;;
65039;SDS011;51606;45.000;38.612;2023-04-03T06:27:46;1.83;;;1.00;;
65039;SDS011;51606;45.000;38.612;2023-04-03T06:30:13;1.83;;;1.33;;
65039;SDS011;51606;45.000;38.612;2023-04-03T06:32:39;0.68;;;0.68;;
65039;SDS011;51606;45.000;38.612;2023-04-03T06:35:06;1.33;;;0.55;;
65039;SDS011;51606;45.000;38.612;2023-04-03T06:37:32;2.10;;;0.98;;
65039;SDS011;51606;45.000;38.612;2023-04-03T06:39:59;4.88;;;1.20;;
65039;SDS011;51606;45.000;38.612;2023-04-03T06:42:26;1.42;;;0.90;;
65039;SDS011;51606;45.000;38.612;2023-04-03T06:44:59;0.95;;;0.80;;
65039;SDS011;51606;45.000;38.612;2023-04-03T06:47:26;0.70;;;0.68;;
65039;SDS011;51606;45.000;38.612;2023-04-03T06:49:53;1.75;;;0.82;;
65039;SDS011;51606;45.000;38.612;2023-04-03T06:52:19;7.95;;;0.82;;
65039;SDS011;51606;45.000;38.612;2023-04-03T06:54:46;1.02;;;0.95;;
65039;SDS011;51606;45.000;38.612;2023-04-03T06:57:13;0.75;;;0.70;;
65039;SDS011;51606;45.000;38.612;2023-04-03T06:59:40;0.63;;;0.63;;
65039;SDS011;51606;45.000;38.612;2023-04-03T07:02:08;0.47;;;0.47;;
65039;SDS011;51606;45.000;38.612;2023-04-03T07:04:35;1.00;;;0.82;;
65039;SDS011;51606;45.000;38.612;2023-04-03T07:07:02;2.35;;;1.35;;
65039;SDS011;51606;45.000;38.612;2023-04-03T07:09:28;1.75;;;1.08;;
65039;SDS011;51606;45.000;38.612;2023-04-03T07:11:55;0.68;;;0.68;;
65039;SDS011;51606;45.000;38.612;2023-04-03T07:14:21;1.02;;;0.73;;
65039;SDS011;51606;45.000;38.612;2023-04-03T07:16:48;1.35;;;0.73;;
65039;SDS011;51606;45.000;38.612;2023-04-03T07:19:14;1.83;;;1.40;;
65039;SDS011;51606;45.000;38.612;2023-04-03T07:21:40;1.05;;;0.90;;
65039;SDS011;51606;45.000;38.612;2023-04-03T07:24:07;7.60;;;1.02;;
65039;SDS011;51606;45.000;38.612;2023-04-03T07:26:33;0.95;;;0.85;;
65039;SDS011;51606;45.000;38.612;2023-04-03T07:29:00;1.17;;;1.02;;
65039;SDS011;51606;45.000;38.612;2023-04-03T07:31:26;2.35;;;1.38;;
65039;SDS011;51606;45.000;38.612;2023-04-03T07:33:52;2.92;;;1.85;;
65039;SDS011;51606;45.000;38.612;2023-04-03T07:36:20;2.78;;;1.52;;
65039;SDS011;51606;45.000;38.612;2023-04-03T07:38:48;3.25;;;1.85;;
65039;SDS011;51606;45.000;38.612;2023-04-03T07:41:15;1.60;;;1.13;;
65039;SDS011;51606;45.000;38.612;2023-04-03T07:43:43;2.15;;;0.65;;
65039;SDS011;51606;45.000;38.612;2023-04-03T07:46:10;1.88;;;1.30;;
65039;SDS011;51606;45.000;38.612;2023-04-03T07:48:37;1.38;;;1.00;;
65039;SDS011;51606;45.000;38.612;2023-04-03T07:51:04;1.00;;;0.68;;
65039;SDS011;51606;45.000;38.612;2023-04-03T07:53:30;7.25;;;1.33;;
65039;SDS011;51606;45.000;38.612;2023-04-03T07:55:57;1.20;;;1.05;;
65039;SDS011;51606;45.000;38.612;2023-04-03T07:58:24;1.23;;;1.05;;
65039;SDS011;51606;45.000;38.612;2023-04-03T08:00:51;1.35;;;1.05;;
65039;SDS011;51606;45.000;38.612;2023-04-03T08:03:18;2.25;;;1.27;;
65039;SDS011;51606;45.000;38.612;2023-04-03T08:05:45;1.00;;;0.73;;
65039;SDS011;51606;45.000;38.612;2023-04-03T08:08:15;1.55;;;0.98;;
65039;SDS011;51606;45.000;38.612;2023-04-03T08:10:43;3.17;;;0.75;;
65039;SDS011;51606;45.000;38.612;2023-04-03T08:13:13;0.73;;;0.50;;
65039;SDS011;51606;45.000;38.612;2023-04-03T08:15:39;0.70;;;0.70;;
65039;SDS011;51606;45.000;38.612;2023-04-03T08:18:06;0.80;;;0.70;;
65039;SDS011;51606;45.000;38.612;2023-04-03T08:20:32;0.70;;;0.70;;
65039;SDS011;51606;45.000;38.612;2023-04-03T08:22:58;0.90;;;0.80;;
65039;SDS011;51606;45.000;38.612;2023-04-03T08:25:25;1.02;;;0.77;;
65039;SDS011;51606;45.000;38.612;2023-04-03T08:27:51;0.65;;;0.55;;
65039;SDS011;51606;45.000;38.612;2023-04-03T08:30:18;0.60;;;0.60;;
65039;SDS011;51606;45.000;38.612;2023-04-03T08:32:44;1.20;;;0.90;;
65039;SDS011;51606;45.000;38.612;2023-04-03T08:35:11;0.80;;;0.57;;
65039;SDS011;51606;45.000;38.612;2023-04-03T08:37:38;1.00;;;0.90;;
65039;SDS011;51606;45.000;38.612;2023-04-03T08:40:05;3.00;;;0.90;;
65039;SDS011;51606;45.000;38.612;2023-04-03T08:45:10;2.85;;;0.70;;
65039;SDS011;51606;45.000;38.612;2023-04-03T08:50:40;1.38;;;0.93;;
65039;SDS011;51606;45.000;38.612;2023-04-03T08:53:14;4.55;;;1.38;;
65039;SDS011;51606;45.000;38.612;2023-04-03T08:55:45;2.38;;;2.03;;
65039;SDS011;51606;45.000;38.612;2023-04-03T08:58:19;0.95;;;0.90;;
65039;SDS011;51606;45.000;38.612;2023-04-03T09:00:51;1.20;;;1.08;;
65039;SDS011;51606;45.000;38.612;2023-04-03T09:03:22;0.73;;;0.68;;
65039;SDS011;51606;45.000;38.612;2023-04-03T09:16:39;0.93;;;0.40;;
65039;SDS011;51606;45.000;38.612;2023-04-03T09:22:16;0.70;;;0.50;;
65039;SDS011;51606;45.000;38.612;2023-04-03T09:24:47;0.85;;;0.52;;
65039;SDS011;51606;45.000;38.612;2023-04-03T09:27:19;0.80;;;0.63;;
65039;SDS011;51606;45.000;38.612;2023-04-03T09:29:46;0.50;;;0.50;;
65039;SDS011;51606;45.000;38.612;2023-04-03T09:32:31;0.90;;;0.73;;
65039;SDS011;51606;45.000;38.612;2023-04-03T09:37:46;0.98;;;0.55;;
65039;SDS011;51606;45.000;38.612;2023-04-03T09:45:47;1.30;;;0.80;;
65039;SDS011;51606;45.000;38.612;2023-04-03T09:48:19;1.17;;;0.93;;
65039;SDS011;51606;45.000;38.612;2023-04-03T09:53:38;0.40;;;0.40;;
65039;SDS011;51606;45.000;38.612;2023-04-03T09:58:49;0.60;;;0.60;;
65039;SDS011;51606;45.000;38.612;2023-04-03T10:04:09;1.20;;;0.80;;
65039;SDS011;51606;45.000;38.612;2023-04-03T10:06:47;0.60;;;0.60;;
65039;SDS011;51606;45.000;38.612;2023-04-03T10:09:25;0.82;;;0.70;;
65039;SDS011;51606;45.000;38.612;2023-04-03T10:12:06;0.40;;;0.40;;
65039;SDS011;51606;45.000;38.612;2023-04-03T10:14:56;0.77;;;0.63;;
65039;SDS011;51606;45.000;38.612;2023-04-03T10:17:30;0.57;;;0.57;;
65039;SDS011;51606;45.000;38.612;2023-04-03T10:22:46;3.13;;;1.48;;
65039;SDS011;51606;45.000;38.612;2023-04-03T10:25:35;6.95;;;1.25;;
65039;SDS011;51606;45.000;38.612;2023-04-03T10:31:46;1.30;;;0.70;;
65039;SDS011;51606;45.000;38.612;2023-04-03T10:34:35;2.00;;;1.42;;
65039;SDS011;51606;45.000;38.612;2023-04-03T10:37:10;0.93;;;0.82;;
65039;SDS011;51606;45.000;38.612;2023-04-03T10:40:33;3.30;;;1.80;;
65039;SDS011;51606;45.000;38.612;2023-04-03T10:57:04;0.47;;;0.38;;
65039;SDS011;51606;45.000;38.612;2023-04-03T11:03:13;2.10;;;1.30;;
65039;SDS011;51606;45.000;38.612;2023-04-03T11:05:45;3.90;;;0.50;;
65039;SDS011;51606;45.000;38.612;2023-04-03T11:08:24;1.45;;;0.75;;
65039;SDS011;51606;45.000;38.612;2023-04-03T11:11:30;1.58;;;1.35;;
65039;SDS011;51606;45.000;38.612;2023-04-03T11:16:30;1.05;;;0.70;;
65039;SDS011;51606;45.000;38.612;2023-04-03T11:19:05;1.67;;;0.60;;
65039;SDS011;51606;45.000;38.612;2023-04-03T11:24:15;0.68;;;0.68;;
65039;SDS011;51606;45.000;38.612;2023-04-03T11:26:48;0.47;;;0.45;;
65039;SDS011;51606;45.000;38.612;2023-04-03T11:29:18;4.53;;;0.60;;
65039;SDS011;51606;45.000;38.612;2023-04-03T11:34:45;1.50;;;0.85;;
65039;SDS011;51606;45.000;38.612;2023-04-03T11:39:56;1.42;;;0.82;;
65039;SDS011;51606;45.000;38.612;2023-04-03T11:42:34;1.02;;;0.95;;
65039;SDS011;51606;45.000;38.612;2023-04-03T11:47:54;0.70;;;0.70;;
65039;SDS011;51606;45.000;38.612;2023-04-03T11:50:43;0.80;;;0.80;;
65039;SDS011;51606;45.000;38.612;2023-04-03T11:55:46;2.00;;;1.20;;
65039;SDS011;51606;45.000;38.612;2023-04-03T11:58:21;1.30;;;0.70;;
65039;SDS011;51606;45.000;38.612;2023-04-03T12:00:59;1.88;;;0.80;;
65039;SDS011;51606;45.000;38.612;2023-04-03T12:24:32;1.38;;;0.50;;
65039;SDS011;51606;45.000;38.612;2023-04-03T12:27:42;1.83;;;0.70;;
65039;SDS011;51606;45.000;38.612;2023-04-03T12:29:56;0.80;;;0.80;;
65039;SDS011;51606;45.000;38.612;2023-04-03T12:46:42;0.60;;;0.50;;
65039;SDS011;51606;45.000;38.612;2023-04-03T12:49:26;1.05;;;0.90;;
65039;SDS011;51606;45.000;38.612;2023-04-03T12:55:13;0.63;;;0.63;;
65039;SDS011;51606;45.000;38.612;2023-04-03T12:57:44;3.17;;;0.85;;
65039;SDS011;51606;45.000;38.612;2023-04-03T13:03:03;0.70;;;0.70;;
65039;SDS011;51606;45.000;38.612;2023-04-03T13:05:31;0.70;;;0.55;;
65039;SDS011;51606;45.000;38.612;2023-04-03T13:07:59;0.40;;;0.40;;
65039;SDS011;51606;45.000;38.612;2023-04-03T13:10:29;0.50;;;0.50;;
65039;SDS011;51606;45.000;38.612;2023-04-03T13:12:58;1.08;;;0.73;;
65039;SDS011;51606;45.000;38.612;2023-04-03T13:15:41;0.80;;;0.70;;
65039;SDS011;51606;45.000;38.612;2023-04-03T13:18:21;0.60;;;0.60;;
65039;SDS011;51606;45.000;38.612;2023-04-03T13:20:56;1.10;;;0.80;;
65039;SDS011;51606;45.000;38.612;2023-04-03T13:23:26;3.13;;;1.50;;
65039;SDS011;51606;45.000;38.612;2023-04-03T13:25:53;2.15;;;1.02;;
65039;SDS011;51606;45.000;38.612;2023-04-03T13:28:21;1.60;;;1.50;;
65039;SDS011;51606;45.000;38.612;2023-04-03T13:33:57;8.25;;;1.45;;
65039;SDS011;51606;45.000;38.612;2023-04-03T13:36:30;1.38;;;0.98;;
65039;SDS011;51606;45.000;38.612;2023-04-03T13:39:17;1.13;;;0.80;;
65039;SDS011;51606;45.000;38.612;2023-04-03T13:41:53;1.30;;;0.93;;
65039;SDS011;51606;45.000;38.612;2023-04-03T13:46:51;1.23;;;0.80;;
65039;SDS011;51606;45.000;38.612;2023-04-03T13:49:20;6.78;;;2.33;;
65039;SDS011;51606;45.000;38.612;2023-04-03T13:51:53;2.05;;;1.38;;
65039;SDS011;51606;45.000;38.612;2023-04-03T13:56:55;1.15;;;1.02;;
65039;SDS011;51606;45.000;38.612;2023-04-03T13:59:27;1.08;;;0.90;;
65039;SDS011;51606;45.000;38.612;2023-04-03T14:04:44;5.22;;;2.03;;
65039;SDS011;51606;45.000;38.612;2023-04-03T14:07:12;8.23;;;1.48;;
65039;SDS011;51606;45.000;38.612;2023-04-03T14:09:38;372.88;;;169.32;;
65039;SDS011;51606;45.000;38.612;2023-04-03T14:12:06;599.88;;;251.90;;
65039;SDS011;51606;45.000;38.612;2023-04-03T14:14:37;166.68;;;59.13;;
65039;SDS011;51606;45.000;38.612;2023-04-03T14:17:10;58.83;;;32.25;;
65039;SDS011;51606;45.000;38.612;2023-04-03T14:19:41;46.33;;;26.75;;
65039;SDS011;51606;45.000;38.612;2023-04-03T14:22:13;56.03;;;29.70;;
65039;SDS011;51606;45.000;38.612;2023-04-03T14:24:47;5.25;;;3.38;;
65039;SDS011;51606;45.000;38.612;2023-04-03T14:27:25;5.55;;;3.42;;
65039;SDS011;51606;45.000;38.612;2023-04-03T14:29:54;5.60;;;3.03;;
65039;SDS011;51606;45.000;38.612;2023-04-03T14:32:23;15.63;;;4.50;;
65039;SDS011;51606;45.000;38.612;2023-04-03T14:34:51;7.78;;;2.75;;
65039;SDS011;51606;45.000;38.612;2023-04-03T14:37:19;3.38;;;0.85;;
65039;SDS011;51606;45.000;38.612;2023-04-03T14:39:48;0.60;;;0.60;;
65039;SDS011;51606;45.000;38.612;2023-04-03T14:42:17;1.90;;;0.85;;
65039;SDS011;51606;45.000;38.612;2023-04-03T14:44:45;2.40;;;1.23;;
65039;SDS011;51606;45.000;38.612;2023-04-03T14:47:14;1.75;;;1.02;;
65039;SDS011;51606;45.000;38.612;2023-04-03T14:49:45;1.38;;;0.50;;
65039;SDS011;51606;45.000;38.612;2023-04-03T14:52:25;1.23;;;0.70;;
65039;SDS011;51606;45.000;38.612;2023-04-03T14:54:56;0.95;;;0.73;;
65039;SDS011;51606;45.000;38.612;2023-04-03T14:57:24;0.75;;;0.70;;
65039;SDS011;51606;45.000;38.612;2023-04-03T14:59:52;0.77;;;0.70;;
65039;SDS011;51606;45.000;38.612;2023-04-03T15:05:03;0.88;;;0.68;;
65039;SDS011;51606;45.000;38.612;2023-04-03T15:07:37;1.42;;;0.82;;
65039;SDS011;51606;45.000;38.612;2023-04-03T15:10:16;1.00;;;0.80;;
65039;SDS011;51606;45.000;38.612;2023-04-03T15:12:45;2.50;;;0.88;;
65039;SDS011;51606;45.000;38.612;2023-04-03T15:15:12;1.00;;;0.85;;
65039;SDS011;51606;45.000;38.612;2023-04-03T15:17:41;3.92;;;1.30;;
65039;SDS011;51606;45.000;38.612;2023-04-03T15:20:18;2.65;;;1.00;;
65039;SDS011;51606;45.000;38.612;2023-04-03T15:22:46;1.60;;;1.10;;
65039;SDS011;51606;45.000;38.612;2023-04-03T15:25:12;1.10;;;0.90;;
65039;SDS011;51606;45.000;38.612;2023-04-03T15:27:39;2.80;;;0.85;;
65039;SDS011;51606;45.000;38.612;2023-04-03T15:30:11;1.52;;;1.10;;
65039;SDS011;51606;45.000;38.612;2023-04-03T15:32:41;2.60;;;1.20;;
65039;SDS011;51606;45.000;38.612;2023-04-03T15:35:07;1.42;;;1.15;;
65039;SDS011;51606;45.000;38.612;2023-04-03T15:37:34;1.65;;;1.25;;
65039;SDS011;51606;45.000;38.612;2023-04-03T15:40:00;3.55;;;1.52;;
65039;SDS011;51606;45.000;38.612;2023-04-03T15:42:27;1.23;;;1.00;;
65039;SDS011;51606;45.000;38.612;2023-04-03T15:44:54;4.72;;;1.27;;
65039;SDS011;51606;45.000;38.612;2023-04-03T15:47:21;1.33;;;1.15;;
65039;SDS011;51606;45.000;38.612;2023-04-03T15:49:48;1.55;;;1.00;;
65039;SDS011;51606;45.000;38.612;2023-04-03T15:52:14;1.95;;;1.20;;
65039;SDS011;51606;45.000;38.612;2023-04-03T15:54:41;0.93;;;0.70;;
65039;SDS011;51606;45.000;38.612;2023-04-03T15:57:09;1.05;;;0.70;;
65039;SDS011;51606;45.000;38.612;2023-04-03T15:59:35;2.78;;;1.23;;
65039;SDS011;51606;45.000;38.612;2023-04-03T16:02:02;1.00;;;0.73;;
65039;SDS011;51606;45.000;38.612;2023-04-03T16:04:32;6.00;;;0.90;;
65039;SDS011;51606;45.000;38.612;2023-04-03T16:07:02;1.83;;;0.98;;
65039;SDS011;51606;45.000;38.612;2023-04-03T16:09:30;2.47;;;1.02;;
65039;SDS011;51606;45.000;38.612;2023-04-03T16:11:58;1.25;;;1.08;;
65039;SDS011;51606;45.000;38.612;2023-04-03T16:14:26;6.55;;;1.20;;
65039;SDS011;51606;45.000;38.612;2023-04-03T16:16:53;0.98;;;0.88;;
65039;SDS011;51606;45.000;38.612;2023-04-03T16:19:20;1.70;;;1.00;;
65039;SDS011;51606;45.000;38.612;2023-04-03T16:21:47;2.08;;;1.10;;
65039;SDS011;51606;45.000;38.612;2023-04-03T16:24:14;0.95;;;0.88;;
65039;SDS011;51606;45.000;38.612;2023-04-03T16:26:40;1.52;;;1.00;;
65039;SDS011;51606;45.000;38.612;2023-04-03T16:29:07;3.50;;;0.90;;
65039;SDS011;51606;45.000;38.612;2023-04-03T16:31:33;0.60;;;0.60;;
65039;SDS011;51606;45.000;38.612;2023-04-03T16:34:00;1.52;;;0.98;;
65039;SDS011;51606;45.000;38.612;2023-04-03T16:36:26;0.90;;;0.73;;
65039;SDS011;51606;45.000;38.612;2023-04-03T16:38:53;0.57;;;0.57;;
65039;SDS011;51606;45.000;38.612;2023-04-03T16:41:19;2.08;;;1.30;;
65039;SDS011;51606;45.000;38.612;2023-04-03T16:43:46;1.10;;;0.70;;
65039;SDS011;51606;45.000;38.612;2023-04-03T16:46:12;1.52;;;0.98;;
65039;SDS011;51606;45.000;38.612;2023-04-03T16:48:39;2.65;;;1.02;;
65039;SDS011;51606;45.000;38.612;2023-04-03T16:51:05;0.65;;;0.60;;
65039;SDS011;51606;45.000;38.612;2023-04-03T16:53:32;0.93;;;0.82;;
65039;SDS011;51606;45.000;38.612;2023-04-03T16:55:58;4.20;;;1.10;;
65039;SDS011;51606;45.000;38.612;2023-04-03T16:58:25;2.88;;;0.85;;
65039;SDS011;51606;45.000;38.612;2023-04-03T17:00:52;7.70;;;0.82;;
65039;SDS011;51606;45.000;38.612;2023-04-03T17:03:19;0.98;;;0.88;;
65039;SDS011;51606;45.000;38.612;2023-04-03T17:05:48;0.73;;;0.60;;
65039;SDS011;51606;45.000;38.612;2023-04-03T17:08:16;4.75;;;1.00;;
65039;SDS011;51606;45.000;38.612;2023-04-03T17:10:43;1.00;;;0.77;;
65039;SDS011;51606;45.000;38.612;2023-04-03T17:13:10;1.83;;;0.90;;
65039;SDS011;51606;45.000;38.612;2023-04-03T17:15:36;1.17;;;0.80;;
65039;SDS011;51606;45.000;38.612;2023-04-03T17:18:05;0.75;;;0.75;;
65039;SDS011;51606;45.000;38.612;2023-04-03T17:20:32;2.83;;;1.30;;
65039;SDS011;51606;45.000;38.612;2023-04-03T17:22:59;0.60;;;0.60;;
65039;SDS011;51606;45.000;38.612;2023-04-03T17:25:25;1.48;;;1.10;;
65039;SDS011;51606;45.000;38.612;2023-04-03T17:27:52;1.65;;;1.00;;
65039;SDS011;51606;45.000;38.612;2023-04-03T17:30:18;5.22;;;1.48;;
65039;SDS011;51606;45.000;38.612;2023-04-03T17:32:45;2.55;;;0.80;;
65039;SDS011;51606;45.000;38.612;2023-04-03T17:35:11;3.15;;;1.02;;
65039;SDS011;51606;45.000;38.612;2023-04-03T17:37:38;1.77;;;0.77;;
65039;SDS011;51606;45.000;38.612;2023-04-03T17:40:05;0.88;;;0.55;;
65039;SDS011;51606;45.000;38.612;2023-04-03T17:42:32;1.92;;;0.75;;
65039;SDS011;51606;45.000;38.612;2023-04-03T17:44:58;6.53;;;0.90;;
65039;SDS011;51606;45.000;38.612;2023-04-03T17:47:26;0.75;;;0.63;;
65039;SDS011;51606;45.000;38.612;2023-04-03T17:49:52;0.88;;;0.73;;
65039;SDS011;51606;45.000;38.612;2023-04-03T17:52:19;0.60;;;0.60;;
65039;SDS011;51606;45.000;38.612;2023-04-03T17:54:50;0.40;;;0.40;;
65039;SDS011;51606;45.000;38.612;2023-04-03T17:57:16;1.10;;;0.88;;
65039;SDS011;51606;45.000;38.612;2023-04-03T17:59:43;1.08;;;0.80;;
65039;SDS011;51606;45.000;38.612;2023-04-03T18:02:09;2.03;;;0.85;;
65039;SDS011;51606;45.000;38.612;2023-04-03T18:04:36;0.93;;;0.82;;
65039;SDS011;51606;45.000;38.612;2023-04-03T18:07:02;0.55;;;0.55;;
65039;SDS011;51606;45.000;38.612;2023-04-03T18:09:32;2.65;;;1.20;;
65039;SDS011;51606;45.000;38.612;2023-04-03T18:11:59;2.13;;;1.30;;
65039;SDS011;51606;45.000;38.612;2023-04-03T18:14:29;5.25;;;1.05;;
65039;SDS011;51606;45.000;38.612;2023-04-03T18:16:58;1.05;;;0.80;;
65039;SDS011;51606;45.000;38.612;2023-04-03T18:19:25;0.70;;;0.63;;
65039;SDS011;51606;45.000;38.612;2023-04-03T18:21:54;1.10;;;0.98;;
65039;SDS011;51606;45.000;38.612;2023-04-03T18:24:23;3.33;;;1.00;;
65039;SDS011;51606;45.000;38.612;2023-04-03T18:26:52;1.67;;;1.23;;
65039;SDS011;51606;45.000;38.612;2023-04-03T18:29:25;1.10;;;0.80;;
65039;SDS011;51606;45.000;38.612;2023-04-03T18:31:55;1.20;;;0.88;;
65039;SDS011;51606;45.000;38.612;2023-04-03T18:34:23;5.78;;;1.17;;
65039;SDS011;51606;45.000;38.612;2023-04-03T18:36:49;0.60;;;0.60;;
65039;SDS011;51606;45.000;38.612;2023-04-03T18:39:17;0.47;;;0.47;;
65039;SDS011;51606;45.000;38.612;2023-04-03T18:41:44;0.70;;;0.70;;
65039;SDS011;51606;45.000;38.612;2023-04-03T18:44:12;2.03;;;1.17;;
65039;SDS011;51606;45.000;38.612;2023-04-03T18:46:42;0.82;;;0.75;;
65039;SDS011;51606;45.000;38.612;2023-04-03T18:49:09;1.10;;;0.60;;
65039;SDS011;51606;45.000;38.612;2023-04-03T18:51:36;0.80;;;0.80;;
65039;SDS011;51606;45.000;38.612;2023-04-03T18:54:06;5.70;;;0.70;;
65039;SDS011;51606;45.000;38.612;2023-04-03T18:56:35;0.40;;;0.40;;
65039;SDS011;51606;45.000;38.612;2023-04-03T18:59:01;0.50;;;0.50;;
65039;SDS011;51606;45.000;38.612;2023-04-03T19:01:28;1.00;;;0.95;;
65039;SDS011;51606;45.000;38.612;2023-04-03T19:03:55;0.93;;;0.75;;
65039;SDS011;51606;45.000;38.612;2023-04-03T19:06:22;0.60;;;0.50;;
65039;SDS011;51606;45.000;38.612;2023-04-03T19:08:48;0.77;;;0.77;;
65039;SDS011;51606;45.000;38.612;2023-04-03T19:11:16;0.63;;;0.45;;
65039;SDS011;51606;45.000;38.612;2023-04-03T19:13:42;0.90;;;0.70;;
65039;SDS011;51606;45.000;38.612;2023-04-03T19:16:10;1.02;;;0.93;;
65039;SDS011;51606;45.000;38.612;2023-04-03T19:18:36;0.40;;;0.40;;
65039;SDS011;51606;45.000;38.612;2023-04-03T19:21:03;2.42;;;1.63;;
65039;SDS011;51606;45.000;38.612;2023-04-03T19:23:47;0.35;;;0.35;;
65039;SDS011;51606;45.000;38.612;2023-04-03T19:26:14;3.70;;;1.17;;
65039;SDS011;51606;45.000;38.612;2023-04-03T19:28:40;0.50;;;0.47;;
65039;SDS011;51606;45.000;38.612;2023-04-03T19:31:11;0.75;;;0.65;;
65039;SDS011;51606;45.000;38.612;2023-04-03T19:33:39;1.70;;;0.88;;
65039;SDS011;51606;45.000;38.612;2023-04-03T19:36:06;1.45;;;1.05;;
65039;SDS011;51606;45.000;38.612;2023-04-03T19:38:34;13.48;;;1.35;;
65039;SDS011;51606;45.000;38.612;2023-04-03T19:41:03;2.03;;;0.93;;
65039;SDS011;51606;45.000;38.612;2023-04-03T19:43:31;0.60;;;0.60;;
65039;SDS011;51606;45.000;38.612;2023-04-03T19:45:57;4.75;;;0.93;;
65039;SDS011;51606;45.000;38.612;2023-04-03T19:48:24;1.60;;;1.15;;
65039;SDS011;51606;45.000;38.612;2023-04-03T19:50:50;1.17;;;0.73;;
65039;SDS011;51606;45.000;38.612;2023-04-03T19:53:17;1.05;;;0.47;;
65039;SDS011;51606;45.000;38.612;2023-04-03T19:55:47;0.82;;;0.60;;
65039;SDS011;51606;45.000;38.612;2023-04-03T19:58:14;0.63;;;0.50;;
65039;SDS011;51606;45.000;38.612;2023-04-03T20:00:40;1.27;;;1.08;;
65039;SDS011;51606;45.000;38.612;2023-04-03T20:03:07;1.20;;;1.02;;
65039;SDS011;51606;45.000;38.612;2023-04-03T20:05:33;1.10;;;0.75;;
65039;SDS011;51606;45.000;38.612;2023-04-03T20:08:00;10.30;;;1.95;;
65039;SDS011;51606;45.000;38.612;2023-04-03T20:10:26;2.28;;;1.95;;
65039;SDS011;51606;45.000;38.612;2023-04-03T20:12:53;2.15;;;1.95;;
65039;SDS011;51606;45.000;38.612;2023-04-03T20:15:19;6.20;;;2.67;;
65039;SDS011;51606;45.000;38.612;2023-04-03T20:17:46;2.25;;;1.60;;
65039;SDS011;51606;45.000;38.612;2023-04-03T20:20:13;1.83;;;1.48;;
65039;SDS011;51606;45.000;38.612;2023-04-03T20:22:40;0.68;;;0.68;;
65039;SDS011;51606;45.000;38.612;2023-04-03T20:25:10;1.33;;;0.98;;
65039;SDS011;51606;45.000;38.612;2023-04-03T20:27:37;3.17;;;1.67;;
65039;SDS011;51606;45.000;38.612;2023-04-03T20:30:06;1.10;;;1.00;;
65039;SDS011;51606;45.000;38.612;2023-04-03T20:32:38;2.53;;;1.55;;
65039;SDS011;51606;45.000;38.612;2023-04-03T20:35:05;2.00;;;0.82;;
65039;SDS011;51606;45.000;38.612;2023-04-03T20:37:32;1.50;;;1.40;;
65039;SDS011;51606;45.000;38.612;2023-04-03T20:39:58;1.95;;;1.15;;
65039;SDS011;51606;45.000;38.612;2023-04-03T20:42:25;9.38;;;2.05;;
65039;SDS011;51606;45.000;38.612;2023-04-03T20:44:51;1.85;;;1.67;;
65039;SDS011;51606;45.000;38.612;2023-04-03T20:47:18;4.50;;;2.63;;
65039;SDS011;51606;45.000;38.612;2023-04-03T20:49:44;1.48;;;1.17;;
65039;SDS011;51606;45.000;38.612;2023-04-03T20:52:11;1.95;;;1.60;;
65039;SDS011;51606;45.000;38.612;2023-04-03T20:54:37;4.20;;;2.28;;
65039;SDS011;51606;45.000;38.612;2023-04-03T20:57:04;1.83;;;1.23;;
65039;SDS011;51606;45.000;38.612;2023-04-03T20:59:31;1.73;;;1.30;;
65039;SDS011;51606;45.000;38.612;2023-04-03T21:01:58;2.03;;;1.27;;
65039;SDS011;51606;45.000;38.612;2023-04-03T21:04:30;2.38;;;2.03;;
